sensor_id;sensor_type;location;lat;lon;timestamp;pressure;altitude;pressure_sealevel;temperature;humidity
61710;BME280;73500;51.494;5.386;2024-01-11T00:00:35;103082.94;;;17.72;31.89
61710;BME280;73500;51.494;5.386;2024-01-11T00:03:00;103071.75;;;17.67;32.08
61710;BME280;73500;51.494;5.386;2024-01-11T00:05:26;103090.66;;;17.76;32.25
61710;BME280;73500;51.494;5.386;2024-01-11T00:07:51;103072.59;;;17.67;31.91
61710;BME280;73500;51.494;5.386;2024-01-11T00:10:17;103081.25;;;17.71;32.17
61710;BME280;73500;51.494;5.386;2024-01-11T00:12:42;103083.81;;;17.72;32.17
61710;BME280;73500;51.494;5.386;2024-01-11T00:15:08;103077.88;;;17.67;31.92
61710;BME280;73500;51.494;5.386;2024-01-11T00:17:33;103071.19;;;17.60;31.94
61710;BME280;73500;51.494;5.386;2024-01-11T00:19:58;103074.59;;;17.62;31.92
61710;BME280;73500;51.494;5.386;2024-01-11T00:22:24;103090.16;;;17.68;32.15
61710;BME280;73500;51.494;5.386;2024-01-11T00:24:49;103098.97;;;17.67;31.92
61710;BME280;73500;51.494;5.386;2024-01-11T00:27:15;103082.69;;;17.57;32.13
61710;BME280;73500;51.494;5.386;2024-01-11T00:29:40;103089.69;;;17.58;32.20
61710;BME280;73500;51.494;5.386;2024-01-11T00:32:05;103088.66;;;17.63;31.91
61710;BME280;73500;51.494;5.386;2024-01-11T00:34:31;103074.22;;;17.51;31.58
61710;BME280;73500;51.494;5.386;2024-01-11T00:36:56;103083.59;;;17.58;31.90
61710;BME280;73500;51.494;5.386;2024-01-11T00:39:21;103080.06;;;17.57;31.88
61710;BME280;73500;51.494;5.386;2024-01-11T00:41:46;103084.50;;;17.57;32.22
61710;BME280;73500;51.494;5.386;2024-01-11T00:44:12;103086.34;;;17.55;31.83
61710;BME280;73500;51.494;5.386;2024-01-11T00:46:37;103082.00;;;17.54;31.87
61710;BME280;73500;51.494;5.386;2024-01-11T00:49:03;103082.91;;;17.53;31.96
61710;BME280;73500;51.494;5.386;2024-01-11T00:51:28;103068.34;;;17.44;32.18
61710;BME280;73500;51.494;5.386;2024-01-11T00:53:54;103067.44;;;17.45;31.90
61710;BME280;73500;51.494;5.386;2024-01-11T00:56:19;103080.63;;;17.45;31.81
61710;BME280;73500;51.494;5.386;2024-01-11T00:58:45;103087.66;;;17.45;31.86
61710;BME280;73500;51.494;5.386;2024-01-11T01:01:11;103083.91;;;17.50;31.98
61710;BME280;73500;51.494;5.386;2024-01-11T01:03:37;103093.56;;;17.50;31.99
61710;BME280;73500;51.494;5.386;2024-01-11T01:06:03;103088.47;;;17.47;31.73
61710;BME280;73500;51.494;5.386;2024-01-11T01:08:28;103093.69;;;17.48;32.00
61710;BME280;73500;51.494;5.386;2024-01-11T01:10:54;103078.84;;;17.46;31.94
61710;BME280;73500;51.494;5.386;2024-01-11T01:13:19;103092.06;;;17.44;32.02
61710;BME280;73500;51.494;5.386;2024-01-11T01:15:44;103086.88;;;17.43;31.71
61710;BME280;73500;51.494;5.386;2024-01-11T01:18:10;103099.00;;;17.47;31.78
61710;BME280;73500;51.494;5.386;2024-01-11T01:20:35;103085.28;;;17.38;31.60
61710;BME280;73500;51.494;5.386;2024-01-11T01:23:01;103088.84;;;17.37;31.69
61710;BME280;73500;51.494;5.386;2024-01-11T01:25:26;103093.25;;;17.37;31.58
61710;BME280;73500;51.494;5.386;2024-01-11T01:27:52;103081.34;;;17.28;31.95
61710;BME280;73500;51.494;5.386;2024-01-11T01:30:17;103109.69;;;17.44;31.81
61710;BME280;73500;51.494;5.386;2024-01-11T01:32:42;103114.06;;;17.43;32.02
61710;BME280;73500;51.494;5.386;2024-01-11T01:35:08;103106.44;;;17.37;32.02
61710;BME280;73500;51.494;5.386;2024-01-11T01:37:33;103115.88;;;17.43;31.88
61710;BME280;73500;51.494;5.386;2024-01-11T01:39:58;103090.16;;;17.27;32.08
61710;BME280;73500;51.494;5.386;2024-01-11T01:42:24;103103.06;;;17.33;31.80
61710;BME280;73500;51.494;5.386;2024-01-11T01:44:49;103112.56;;;17.37;31.83
61710;BME280;73500;51.494;5.386;2024-01-11T01:47:15;103113.69;;;17.32;31.57
61710;BME280;73500;51.494;5.386;2024-01-11T01:49:42;103116.25;;;17.33;31.90
61710;BME280;73500;51.494;5.386;2024-01-11T01:52:08;103121.53;;;17.33;32.05
61710;BME280;73500;51.494;5.386;2024-01-11T01:54:34;103131.03;;;17.37;31.98
61710;BME280;73500;51.494;5.386;2024-01-11T01:57:00;103134.44;;;17.39;31.76
61710;BME280;73500;51.494;5.386;2024-01-11T01:59:27;103126.91;;;17.30;32.07
61710;BME280;73500;51.494;5.386;2024-01-11T02:01:52;103130.38;;;17.32;32.12
61710;BME280;73500;51.494;5.386;2024-01-11T02:04:18;103148.53;;;17.38;31.75
61710;BME280;73500;51.494;5.386;2024-01-11T02:06:46;103143.44;;;17.34;31.98
61710;BME280;73500;51.494;5.386;2024-01-11T02:09:12;103145.91;;;17.38;31.76
61710;BME280;73500;51.494;5.386;2024-01-11T02:11:38;103136.31;;;17.37;32.03
61710;BME280;73500;51.494;5.386;2024-01-11T02:14:04;103137.22;;;17.36;31.88
61710;BME280;73500;51.494;5.386;2024-01-11T02:16:30;103135.47;;;17.35;31.65
61710;BME280;73500;51.494;5.386;2024-01-11T02:18:55;103126.66;;;17.36;31.57
61710;BME280;73500;51.494;5.386;2024-01-11T02:21:22;103111.16;;;17.29;31.63
61710;BME280;73500;51.494;5.386;2024-01-11T02:24:14;103123.25;;;17.34;31.89
61710;BME280;73500;51.494;5.386;2024-01-11T02:27:00;103104.47;;;17.21;31.83
61710;BME280;73500;51.494;5.386;2024-01-11T02:29:26;103117.97;;;17.34;31.75
61710;BME280;73500;51.494;5.386;2024-01-11T02:31:52;103116.56;;;17.26;31.86
61710;BME280;73500;51.494;5.386;2024-01-11T02:34:17;103110.50;;;17.23;31.95
61710;BME280;73500;51.494;5.386;2024-01-11T02:36:43;103120.88;;;17.28;31.58
61710;BME280;73500;51.494;5.386;2024-01-11T02:39:09;103121.06;;;17.23;31.83
61710;BME280;73500;51.494;5.386;2024-01-11T02:41:36;103140.97;;;17.31;31.78
61710;BME280;73500;51.494;5.386;2024-01-11T02:44:02;103137.41;;;17.32;31.58
61710;BME280;73500;51.494;5.386;2024-01-11T02:46:27;103130.44;;;17.31;31.41
61710;BME280;73500;51.494;5.386;2024-01-11T02:48:53;103130.56;;;17.28;31.81
61710;BME280;73500;51.494;5.386;2024-01-11T02:51:18;103123.69;;;17.23;31.58
61710;BME280;73500;51.494;5.386;2024-01-11T02:53:43;103121.13;;;17.22;31.87
61710;BME280;73500;51.494;5.386;2024-01-11T02:56:08;103129.69;;;17.27;31.58
61710;BME280;73500;51.494;5.386;2024-01-11T02:58:34;103132.38;;;17.26;31.52
61710;BME280;73500;51.494;5.386;2024-01-11T03:00:59;103134.88;;;17.29;31.59
61710;BME280;73500;51.494;5.386;2024-01-11T03:03:24;103118.59;;;17.19;31.71
61710;BME280;73500;51.494;5.386;2024-01-11T03:05:49;103141.94;;;17.28;31.82
61710;BME280;73500;51.494;5.386;2024-01-11T03:08:15;103129.69;;;17.27;31.47
61710;BME280;73500;51.494;5.386;2024-01-11T03:10:40;103128.13;;;17.23;31.52
61710;BME280;73500;51.494;5.386;2024-01-11T03:13:07;103128.91;;;17.25;31.59
61710;BME280;73500;51.494;5.386;2024-01-11T03:15:32;103125.47;;;17.23;31.80
61710;BME280;73500;51.494;5.386;2024-01-11T03:17:58;103128.19;;;17.21;31.83
61710;BME280;73500;51.494;5.386;2024-01-11T03:20:23;103116.28;;;17.11;31.61
61710;BME280;73500;51.494;5.386;2024-01-11T03:22:50;103134.22;;;17.23;31.54
61710;BME280;73500;51.494;5.386;2024-01-11T03:25:16;103136.94;;;17.22;31.73
61710;BME280;73500;51.494;5.386;2024-01-11T03:27:42;103136.13;;;17.20;31.67
61710;BME280;73500;51.494;5.386;2024-01-11T03:30:07;103132.56;;;17.21;31.87
61710;BME280;73500;51.494;5.386;2024-01-11T03:32:33;103129.94;;;17.21;31.70
61710;BME280;73500;51.494;5.386;2024-01-11T03:34:58;103122.22;;;17.16;31.33
61710;BME280;73500;51.494;5.386;2024-01-11T03:37:23;103129.16;;;17.19;31.49
61710;BME280;73500;51.494;5.386;2024-01-11T03:39:48;103120.72;;;17.11;31.38
61710;BME280;73500;51.494;5.386;2024-01-11T03:42:14;103135.31;;;17.18;31.49
61710;BME280;73500;51.494;5.386;2024-01-11T03:44:39;103121.63;;;17.10;31.46
61710;BME280;73500;51.494;5.386;2024-01-11T03:47:04;103136.19;;;17.18;31.58
61710;BME280;73500;51.494;5.386;2024-01-11T03:49:29;103110.28;;;17.08;31.56
61710;BME280;73500;51.494;5.386;2024-01-11T03:51:55;103122.22;;;17.16;31.80
61710;BME280;73500;51.494;5.386;2024-01-11T03:54:20;103117.94;;;17.14;31.46
61710;BME280;73500;51.494;5.386;2024-01-11T03:56:45;103123.22;;;17.14;31.53
61710;BME280;73500;51.494;5.386;2024-01-11T03:59:11;103127.63;;;17.13;31.26
61710;BME280;73500;51.494;5.386;2024-01-11T04:01:41;103129.41;;;17.13;31.38
61710;BME280;73500;51.494;5.386;2024-01-11T04:04:06;103147.06;;;17.11;31.54
61710;BME280;73500;51.494;5.386;2024-01-11T04:06:31;103127.94;;;17.06;31.34
61710;BME280;73500;51.494;5.386;2024-01-11T04:08:57;103133.88;;;17.11;31.65
61710;BME280;73500;51.494;5.386;2024-01-11T04:11:22;103115.81;;;17.01;31.68
61710;BME280;73500;51.494;5.386;2024-01-11T04:13:47;103128.59;;;17.11;31.29
61710;BME280;73500;51.494;5.386;2024-01-11T04:16:13;103108.81;;;17.00;31.54
61710;BME280;73500;51.494;5.386;2024-01-11T04:18:38;103135.78;;;17.07;31.29
61710;BME280;73500;51.494;5.386;2024-01-11T04:21:04;103148.84;;;17.10;31.33
61710;BME280;73500;51.494;5.386;2024-01-11T04:23:29;103148.25;;;17.02;31.67
61710;BME280;73500;51.494;5.386;2024-01-11T04:25:54;103172.69;;;17.07;31.27
61710;BME280;73500;51.494;5.386;2024-01-11T04:28:20;103172.63;;;17.09;31.61
61710;BME280;73500;51.494;5.386;2024-01-11T04:30:45;103159.88;;;16.98;31.28
61710;BME280;73500;51.494;5.386;2024-01-11T04:33:10;103151.03;;;16.99;31.72
61710;BME280;73500;51.494;5.386;2024-01-11T04:35:36;103169.16;;;17.07;31.22
61710;BME280;73500;51.494;5.386;2024-01-11T04:38:02;103167.59;;;17.02;31.54
61710;BME280;73500;51.494;5.386;2024-01-11T04:40:27;103188.53;;;17.06;31.46
61710;BME280;73500;51.494;5.386;2024-01-11T04:42:52;103176.50;;;16.98;31.58
61710;BME280;73500;51.494;5.386;2024-01-11T04:45:17;103169.47;;;16.99;31.66
61710;BME280;73500;51.494;5.386;2024-01-11T04:47:43;103193.81;;;17.06;31.24
61710;BME280;73500;51.494;5.386;2024-01-11T04:50:08;103185.16;;;17.02;31.40
61710;BME280;73500;51.494;5.386;2024-01-11T04:52:34;103181.53;;;17.04;31.55
61710;BME280;73500;51.494;5.386;2024-01-11T04:54:59;103159.13;;;16.94;31.64
61710;BME280;73500;51.494;5.386;2024-01-11T04:57:24;103167.69;;;16.99;31.43
61710;BME280;73500;51.494;5.386;2024-01-11T04:59:49;103165.19;;;16.96;31.23
61710;BME280;73500;51.494;5.386;2024-01-11T05:02:15;103165.13;;;16.98;31.59
61710;BME280;73500;51.494;5.386;2024-01-11T05:04:40;103167.75;;;16.98;31.05
61710;BME280;73500;51.494;5.386;2024-01-11T05:07:05;103181.66;;;17.01;31.69
61710;BME280;73500;51.494;5.386;2024-01-11T05:09:31;103183.34;;;17.04;31.32
61710;BME280;73500;51.494;5.386;2024-01-11T05:11:56;103174.72;;;16.99;31.35
61710;BME280;73500;51.494;5.386;2024-01-11T05:14:21;103166.91;;;16.97;31.40
61710;BME280;73500;51.494;5.386;2024-01-11T05:16:47;103184.28;;;17.01;31.64
61710;BME280;73500;51.494;5.386;2024-01-11T05:19:12;103181.78;;;16.98;31.53
61710;BME280;73500;51.494;5.386;2024-01-11T05:21:37;103186.94;;;17.01;31.57
61710;BME280;73500;51.494;5.386;2024-01-11T05:24:03;103175.91;;;16.92;31.40
61710;BME280;73500;51.494;5.386;2024-01-11T05:26:28;103175.91;;;16.92;31.45
61710;BME280;73500;51.494;5.386;2024-01-11T05:28:53;103154.66;;;16.73;31.81
61710;BME280;73500;51.494;5.386;2024-01-11T05:31:18;103181.97;;;16.94;31.75
61710;BME280;73500;51.494;5.386;2024-01-11T05:33:44;103199.13;;;17.04;32.32
61710;BME280;73500;51.494;5.386;2024-01-11T05:36:10;103196.63;;;17.01;32.78
61710;BME280;73500;51.494;5.386;2024-01-11T05:38:38;103210.22;;;17.12;32.90
61710;BME280;73500;51.494;5.386;2024-01-11T05:41:03;103204.28;;;17.07;33.26
61710;BME280;73500;51.494;5.386;2024-01-11T05:43:29;103227.44;;;17.21;33.36
61710;BME280;73500;51.494;5.386;2024-01-11T05:45:54;103205.69;;;17.16;33.35
61710;BME280;73500;51.494;5.386;2024-01-11T05:48:19;103243.06;;;17.26;33.61
61710;BME280;73500;51.494;5.386;2024-01-11T05:50:45;103233.34;;;17.28;33.24
61710;BME280;73500;51.494;5.386;2024-01-11T05:53:11;103235.72;;;17.34;33.71
61710;BME280;73500;51.494;5.386;2024-01-11T05:55:37;103224.19;;;17.36;33.66
61710;BME280;73500;51.494;5.386;2024-01-11T05:58:02;103217.88;;;17.40;33.50
61710;BME280;73500;51.494;5.386;2024-01-11T06:00:28;103209.97;;;17.40;33.47
61710;BME280;73500;51.494;5.386;2024-01-11T06:02:53;103214.25;;;17.43;33.70
61710;BME280;73500;51.494;5.386;2024-01-11T06:05:18;103204.84;;;17.37;33.69
61710;BME280;73500;51.494;5.386;2024-01-11T06:07:43;103209.72;;;17.47;33.58
61710;BME280;73500;51.494;5.386;2024-01-11T06:10:09;103211.81;;;17.38;33.46
61710;BME280;73500;51.494;5.386;2024-01-11T06:12:35;103228.91;;;17.50;33.35
61710;BME280;73500;51.494;5.386;2024-01-11T06:15:01;103236.75;;;17.52;33.36
61710;BME280;73500;51.494;5.386;2024-01-11T06:17:26;103241.09;;;17.53;33.50
61710;BME280;73500;51.494;5.386;2024-01-11T06:19:51;103254.56;;;17.47;33.62
61710;BME280;73500;51.494;5.386;2024-01-11T06:22:17;103249.34;;;17.45;33.51
61710;BME280;73500;51.494;5.386;2024-01-11T06:24:42;103259.47;;;17.54;33.52
61710;BME280;73500;51.494;5.386;2024-01-11T06:27:07;103241.31;;;17.48;33.52
61710;BME280;73500;51.494;5.386;2024-01-11T06:29:32;103236.88;;;17.49;33.29
61710;BME280;73500;51.494;5.386;2024-01-11T06:31:58;103228.13;;;17.48;33.21
61710;BME280;73500;51.494;5.386;2024-01-11T06:34:23;103243.59;;;17.56;33.04
61710;BME280;73500;51.494;5.386;2024-01-11T06:36:48;103250.78;;;17.52;33.52
61710;BME280;73500;51.494;5.386;2024-01-11T06:39:14;103258.44;;;17.58;33.06
61710;BME280;73500;51.494;5.386;2024-01-11T06:41:39;103228.13;;;17.48;32.79
61710;BME280;73500;51.494;5.386;2024-01-11T06:44:04;103219.34;;;17.48;33.10
61710;BME280;73500;51.494;5.386;2024-01-11T06:46:30;103227.06;;;17.52;32.92
61710;BME280;73500;51.494;5.386;2024-01-11T06:48:55;103235.69;;;17.56;33.18
61710;BME280;73500;51.494;5.386;2024-01-11T06:51:22;103238.56;;;17.50;33.14
61710;BME280;73500;51.494;5.386;2024-01-11T06:53:47;103239.53;;;17.49;33.04
61710;BME280;73500;51.494;5.386;2024-01-11T06:56:16;103253.25;;;17.57;33.15
61710;BME280;73500;51.494;5.386;2024-01-11T06:58:43;103252.41;;;17.56;33.04
61710;BME280;73500;51.494;5.386;2024-01-11T07:01:09;103254.16;;;17.56;33.18
61710;BME280;73500;51.494;5.386;2024-01-11T07:03:34;103268.16;;;17.58;33.00
61710;BME280;73500;51.494;5.386;2024-01-11T07:05:59;103261.34;;;17.52;32.85
61710;BME280;73500;51.494;5.386;2024-01-11T07:08:25;103265.44;;;17.59;33.03
61710;BME280;73500;51.494;5.386;2024-01-11T07:10:50;103255.22;;;17.52;33.27
61710;BME280;73500;51.494;5.386;2024-01-11T07:13:15;103249.06;;;17.51;32.92
61710;BME280;73500;51.494;5.386;2024-01-11T07:15:42;103266.38;;;17.58;32.89
61710;BME280;73500;51.494;5.386;2024-01-11T07:18:08;103275.13;;;17.59;33.01
61710;BME280;73500;51.494;5.386;2024-01-11T07:20:33;103276.97;;;17.57;32.76
61710;BME280;73500;51.494;5.386;2024-01-11T07:22:59;103287.34;;;17.62;32.62
61710;BME280;73500;51.494;5.386;2024-01-11T07:25:25;103289.91;;;17.63;32.75
61710;BME280;73500;51.494;5.386;2024-01-11T07:27:50;103268.22;;;17.56;32.83
61710;BME280;73500;51.494;5.386;2024-01-11T07:30:15;103272.59;;;17.56;32.86
61710;BME280;73500;51.494;5.386;2024-01-11T07:32:41;103268.22;;;17.56;33.07
61710;BME280;73500;51.494;5.386;2024-01-11T07:35:06;103278.47;;;17.64;32.90
61710;BME280;73500;51.494;5.386;2024-01-11T07:37:32;103277.03;;;17.55;32.92
61710;BME280;73500;51.494;5.386;2024-01-11T07:39:57;103290.81;;;17.62;32.83
61710;BME280;73500;51.494;5.386;2024-01-11T07:42:22;103288.06;;;17.65;33.08
61710;BME280;73500;51.494;5.386;2024-01-11T07:44:48;103276.19;;;17.55;32.76
61710;BME280;73500;51.494;5.386;2024-01-11T07:47:13;103282.78;;;17.65;33.22
61710;BME280;73500;51.494;5.386;2024-01-11T07:49:38;103258.56;;;17.55;32.63
61710;BME280;73500;51.494;5.386;2024-01-11T07:52:04;103242.94;;;17.51;32.63
61710;BME280;73500;51.494;5.386;2024-01-11T07:54:30;103280.16;;;17.65;32.64
61710;BME280;73500;51.494;5.386;2024-01-11T07:56:56;103276.97;;;17.57;32.83
61710;BME280;73500;51.494;5.386;2024-01-11T07:59:21;103277.09;;;17.54;33.00
61710;BME280;73500;51.494;5.386;2024-01-11T08:01:47;103278.75;;;17.56;33.03
61710;BME280;73500;51.494;5.386;2024-01-11T08:04:13;103289.25;;;17.58;33.20
61710;BME280;73500;51.494;5.386;2024-01-11T08:06:39;103297.88;;;17.62;33.23
61710;BME280;73500;51.494;5.386;2024-01-11T08:09:04;103286.50;;;17.61;33.70
61710;BME280;73500;51.494;5.386;2024-01-11T08:11:30;103288.06;;;17.65;33.60
61710;BME280;73500;51.494;5.386;2024-01-11T08:13:56;103274.34;;;17.57;33.91
61710;BME280;73500;51.494;5.386;2024-01-11T08:16:21;103284.69;;;17.62;34.04
61710;BME280;73500;51.494;5.386;2024-01-11T08:18:47;103261.09;;;17.58;34.19
61710;BME280;73500;51.494;5.386;2024-01-11T08:21:14;103256.72;;;17.57;34.14
61710;BME280;73500;51.494;5.386;2024-01-11T08:23:40;103258.28;;;17.63;34.19
61710;BME280;73500;51.494;5.386;2024-01-11T08:26:11;103261.44;;;17.71;34.27
61710;BME280;73500;51.494;5.386;2024-01-11T08:28:37;103258.81;;;17.71;34.65
61710;BME280;73500;51.494;5.386;2024-01-11T08:31:02;103241.66;;;17.61;34.84
61710;BME280;73500;51.494;5.386;2024-01-11T08:33:30;103244.28;;;17.61;34.53
61710;BME280;73500;51.494;5.386;2024-01-11T08:35:55;103254.66;;;17.66;34.50
61710;BME280;73500;51.494;5.386;2024-01-11T08:38:20;103275.28;;;17.76;34.63
61710;BME280;73500;51.494;5.386;2024-01-11T08:40:45;103273.72;;;17.72;34.39
61710;BME280;73500;51.494;5.386;2024-01-11T08:43:11;103281.38;;;17.79;34.87
61710;BME280;73500;51.494;5.386;2024-01-11T08:45:36;103279.78;;;17.74;34.67
61710;BME280;73500;51.494;5.386;2024-01-11T08:48:01;103273.66;;;17.74;34.98
61710;BME280;73500;51.494;5.386;2024-01-11T08:50:27;103261.50;;;17.70;34.73
61710;BME280;73500;51.494;5.386;2024-01-11T08:52:52;103258.81;;;17.71;34.69
61710;BME280;73500;51.494;5.386;2024-01-11T08:55:20;103257.06;;;17.70;34.88
61710;BME280;73500;51.494;5.386;2024-01-11T08:57:45;103267.63;;;17.70;34.82
61710;BME280;73500;51.494;5.386;2024-01-11T09:00:11;103273.66;;;17.74;34.94
61710;BME280;73500;51.494;5.386;2024-01-11T09:02:36;103303.94;;;17.86;35.06
61710;BME280;73500;51.494;5.386;2024-01-11T09:05:02;103305.78;;;17.84;34.92
61710;BME280;73500;51.494;5.386;2024-01-11T09:07:30;103311.06;;;17.84;35.23
61710;BME280;73500;51.494;5.386;2024-01-11T09:09:55;103313.69;;;17.84;35.55
61710;BME280;73500;51.494;5.386;2024-01-11T09:12:20;103311.00;;;17.85;34.93
61710;BME280;73500;51.494;5.386;2024-01-11T09:14:46;103314.53;;;17.84;35.00
61710;BME280;73500;51.494;5.386;2024-01-11T09:17:12;103303.34;;;17.79;34.89
61710;BME280;73500;51.494;5.386;2024-01-11T09:19:37;103306.75;;;17.81;35.06
61710;BME280;73500;51.494;5.386;2024-01-11T09:22:05;103314.53;;;17.84;35.51
61710;BME280;73500;51.494;5.386;2024-01-11T09:24:30;103321.50;;;17.87;35.19
61710;BME280;73500;51.494;5.386;2024-01-11T09:26:55;103302.47;;;17.79;35.28
61710;BME280;73500;51.494;5.386;2024-01-11T09:29:21;103313.75;;;17.82;34.96
61710;BME280;73500;51.494;5.386;2024-01-11T09:31:46;103309.41;;;17.81;34.80
61710;BME280;73500;51.494;5.386;2024-01-11T09:34:11;103312.16;;;17.78;34.60
61710;BME280;73500;51.494;5.386;2024-01-11T09:36:37;103311.25;;;17.79;34.87
61710;BME280;73500;51.494;5.386;2024-01-11T09:39:04;103317.38;;;17.80;34.72
61710;BME280;73500;51.494;5.386;2024-01-11T09:41:31;103341.69;;;17.88;34.68
61710;BME280;73500;51.494;5.386;2024-01-11T09:43:59;103339.22;;;17.83;34.59
61710;BME280;73500;51.494;5.386;2024-01-11T09:46:25;103343.44;;;17.87;34.41
61710;BME280;73500;51.494;5.386;2024-01-11T09:48:53;103333.19;;;17.80;34.67
61710;BME280;73500;51.494;5.386;2024-01-11T09:51:20;103353.97;;;17.89;34.55
61710;BME280;73500;51.494;5.386;2024-01-11T09:53:47;103353.16;;;17.87;34.16
61710;BME280;73500;51.494;5.386;2024-01-11T09:56:16;103353.38;;;17.81;34.72
61710;BME280;73500;51.494;5.386;2024-01-11T09:58:45;103348.16;;;17.79;34.81
61710;BME280;73500;51.494;5.386;2024-01-11T10:01:13;103358.59;;;17.82;34.77
61710;BME280;73500;51.494;5.386;2024-01-11T10:03:39;103363.66;;;17.88;34.36
61710;BME280;73500;51.494;5.386;2024-01-11T10:06:06;103358.47;;;17.85;34.49
61710;BME280;73500;51.494;5.386;2024-01-11T10:08:32;103330.19;;;17.67;34.53
61710;BME280;73500;51.494;5.386;2024-01-11T10:10:57;103364.44;;;17.90;34.48
61710;BME280;73500;51.494;5.386;2024-01-11T10:13:27;103351.47;;;17.84;34.59
61710;BME280;73500;51.494;5.386;2024-01-11T10:16:04;103367.09;;;17.90;34.66
61710;BME280;73500;51.494;5.386;2024-01-11T10:18:30;103352.41;;;17.83;34.79
61710;BME280;73500;51.494;5.386;2024-01-11T10:20:56;103367.88;;;17.92;34.81
61710;BME280;73500;51.494;5.386;2024-01-11T10:23:22;103353.25;;;17.84;34.48
61710;BME280;73500;51.494;5.386;2024-01-11T10:25:48;103376.72;;;17.91;34.59
61710;BME280;73500;51.494;5.386;2024-01-11T10:28:13;103377.53;;;17.93;34.86
61710;BME280;73500;51.494;5.386;2024-01-11T10:30:39;103370.47;;;17.94;34.31
61710;BME280;73500;51.494;5.386;2024-01-11T10:33:07;103366.31;;;17.88;34.49
61710;BME280;73500;51.494;5.386;2024-01-11T10:35:32;103354.06;;;17.86;34.58
61710;BME280;73500;51.494;5.386;2024-01-11T10:37:58;103367.81;;;17.94;34.54
61710;BME280;73500;51.494;5.386;2024-01-11T10:40:24;103356.59;;;17.89;34.73
61710;BME280;73500;51.494;5.386;2024-01-11T10:42:51;103372.97;;;17.97;34.64
61710;BME280;73500;51.494;5.386;2024-01-11T10:45:19;103383.53;;;17.97;34.72
61710;BME280;73500;51.494;5.386;2024-01-11T10:47:53;103384.47;;;17.96;34.83
61710;BME280;73500;51.494;5.386;2024-01-11T10:50:19;103374.75;;;17.97;34.70
61710;BME280;73500;51.494;5.386;2024-01-11T10:55:19;103367.81;;;17.94;34.86
61710;BME280;73500;51.494;5.386;2024-01-11T10:57:47;103365.25;;;17.92;34.94
61710;BME280;73500;51.494;5.386;2024-01-11T11:00:13;103365.88;;;17.99;34.84
61710;BME280;73500;51.494;5.386;2024-01-11T11:02:40;103373.63;;;18.02;34.57
61710;BME280;73500;51.494;5.386;2024-01-11T11:05:07;103361.56;;;17.97;34.84
61710;BME280;73500;51.494;5.386;2024-01-11T11:07:35;103351.97;;;17.94;34.87
61710;BME280;73500;51.494;5.386;2024-01-11T11:10:01;103370.88;;;18.05;34.79
61710;BME280;73500;51.494;5.386;2024-01-11T11:12:31;103355.44;;;17.96;34.35
61710;BME280;73500;51.494;5.386;2024-01-11T11:14:58;103369.25;;;18.03;34.62
61710;BME280;73500;51.494;5.386;2024-01-11T11:17:24;103367.69;;;17.97;34.60
61710;BME280;73500;51.494;5.386;2024-01-11T11:19:50;103379.06;;;17.99;34.44
61710;BME280;73500;51.494;5.386;2024-01-11T11:22:17;103370.41;;;17.95;34.32
61710;BME280;73500;51.494;5.386;2024-01-11T11:24:44;103359.78;;;17.97;34.19
61710;BME280;73500;51.494;5.386;2024-01-11T11:27:13;103384.06;;;18.05;34.33
61710;BME280;73500;51.494;5.386;2024-01-11T11:29:38;103389.53;;;18.01;34.40
61710;BME280;73500;51.494;5.386;2024-01-11T11:32:04;103397.13;;;18.08;34.25
61710;BME280;73500;51.494;5.386;2024-01-11T11:34:46;103392.63;;;18.12;34.50
61710;BME280;73500;51.494;5.386;2024-01-11T11:37:12;103396.09;;;18.12;34.60
61710;BME280;73500;51.494;5.386;2024-01-11T11:39:37;103402.03;;;18.18;34.89
61710;BME280;73500;51.494;5.386;2024-01-11T11:42:03;103393.34;;;18.16;34.53
61710;BME280;73500;51.494;5.386;2024-01-11T11:44:29;103395.72;;;18.22;34.73
61710;BME280;73500;51.494;5.386;2024-01-11T11:46:54;103384.63;;;18.13;34.85
61710;BME280;73500;51.494;5.386;2024-01-11T11:49:20;103381.78;;;18.18;35.05
61710;BME280;73500;51.494;5.386;2024-01-11T11:51:45;103398.25;;;18.25;35.04
61710;BME280;73500;51.494;5.386;2024-01-11T11:54:11;103390.56;;;18.19;34.73
61710;BME280;73500;51.494;5.386;2024-01-11T11:56:36;103402.72;;;18.23;34.74
61710;BME280;73500;51.494;5.386;2024-01-11T11:59:02;103383.63;;;18.16;34.79
61710;BME280;73500;51.494;5.386;2024-01-11T12:01:29;103393.28;;;18.17;34.71
61710;BME280;73500;51.494;5.386;2024-01-11T12:03:56;103389.56;;;18.21;34.79
61710;BME280;73500;51.494;5.386;2024-01-11T12:06:34;103398.25;;;18.25;34.79
61710;BME280;73500;51.494;5.386;2024-01-11T12:09:00;103381.94;;;18.15;34.99
61710;BME280;73500;51.494;5.386;2024-01-11T12:11:25;103370.63;;;18.11;34.80
61710;BME280;73500;51.494;5.386;2024-01-11T12:13:51;103369.66;;;18.14;34.73
61710;BME280;73500;51.494;5.386;2024-01-11T12:16:18;103391.31;;;18.22;34.68
61710;BME280;73500;51.494;5.386;2024-01-11T12:18:44;103377.44;;;18.17;34.69
61710;BME280;73500;51.494;5.386;2024-01-11T12:21:10;103370.38;;;18.18;34.51
61710;BME280;73500;51.494;5.386;2024-01-11T12:23:38;103372.09;;;18.19;34.36
61710;BME280;73500;51.494;5.386;2024-01-11T12:26:06;103365.94;;;18.18;34.49
61710;BME280;73500;51.494;5.386;2024-01-11T12:28:37;103346.03;;;18.11;34.59
61710;BME280;73500;51.494;5.386;2024-01-11T12:31:02;103358.97;;;18.17;34.91
61710;BME280;73500;51.494;5.386;2024-01-11T12:33:28;103341.59;;;18.11;34.72
61710;BME280;73500;51.494;5.386;2024-01-11T12:35:54;103360.66;;;18.18;35.04
61710;BME280;73500;51.494;5.386;2024-01-11T12:38:19;103357.19;;;18.18;34.97
61710;BME280;73500;51.494;5.386;2024-01-11T12:40:45;103345.97;;;18.12;34.93
61710;BME280;73500;51.494;5.386;2024-01-11T12:43:11;103345.06;;;18.13;34.85
61710;BME280;73500;51.494;5.386;2024-01-11T12:45:37;103360.53;;;18.21;34.49